createdAt,value
2023-04-15T00:00:50.874Z,237.60
2023-04-15T00:01:50.899Z,339.30
2023-04-15T00:02:50.818Z,241.10
2023-04-15T00:03:50.909Z,319.80
2023-04-15T00:04:50.863Z,328.90
2023-04-15T00:05:50.802Z,341.70
2023-04-15T00:06:50.816Z,303.40
2023-04-15T00:07:50.707Z,394.50
2023-04-15T00:08:50.684Z,331.70
2023-04-15T00:09:52.691Z,330.40
2023-04-15T00:10:50.697Z,299.00
2023-04-15T00:11:50.750Z,451.20
2023-04-15T00:12:53.587Z,447.90
2023-04-15T00:13:50.654Z,354.20
2023-04-15T00:14:50.801Z,374.80
2023-04-15T00:15:50.721Z,444.80
2023-04-15T00:16:50.729Z,370.00
2023-04-15T00:17:50.767Z,340.10
2023-04-15T00:19:47.593Z,332.20
2023-04-15T00:19:50.581Z,624.90
2023-04-15T00:20:51.727Z,292.70
2023-04-15T00:21:51.669Z,399.40
2023-04-15T00:23:55.054Z,403.70
2023-04-15T00:23:56.727Z,731.30
2023-04-15T00:24:56.855Z,377.10
2023-04-15T00:25:56.749Z,319.10
2023-04-15T00:26:56.893Z,356.60
2023-04-15T00:27:56.682Z,527.40
2023-04-15T00:28:56.752Z,490.90
2023-04-15T00:29:56.791Z,442.70
2023-04-15T00:30:56.744Z,428.70
2023-04-15T00:31:56.758Z,434.10
2023-04-15T00:32:56.860Z,410.40
2023-04-15T00:33:57.770Z,404.50
2023-04-15T00:36:11.498Z,544.80
2023-04-15T00:37:12.309Z,407.80
2023-04-15T00:38:11.761Z,369.40
2023-04-15T00:39:11.705Z,376.50
2023-04-15T00:40:11.727Z,382.30
2023-04-15T00:41:11.701Z,409.50
2023-04-15T00:42:11.646Z,422.10
2023-04-15T00:43:11.612Z,401.80
2023-04-15T00:44:11.639Z,447.10
2023-04-15T00:45:11.601Z,415.80
2023-04-15T00:46:11.670Z,388.90
2023-04-15T00:47:11.753Z,374.50
2023-04-15T00:48:11.593Z,353.30
2023-04-15T00:49:11.558Z,363.00
2023-04-15T00:50:11.501Z,371.80
2023-04-15T00:51:11.552Z,384.50
2023-04-15T00:52:11.601Z,471.80
2023-04-15T00:53:11.664Z,398.00
2023-04-15T00:54:11.674Z,427.10
2023-04-15T00:55:11.473Z,436.30
2023-04-15T00:56:11.550Z,388.00
2023-04-15T00:57:11.730Z,364.00
2023-04-15T00:58:11.503Z,365.10
2023-04-15T00:59:11.637Z,394.00
2023-04-15T01:00:11.521Z,369.10
2023-04-15T01:01:11.719Z,371.10
2023-04-15T01:03:03.326Z,371.20
2023-04-15T01:03:11.478Z,621.60
2023-04-15T01:04:11.535Z,327.50
2023-04-15T01:05:11.475Z,276.10
2023-04-15T01:06:11.499Z,234.30
2023-04-15T01:07:11.419Z,255.00
2023-04-15T01:08:11.497Z,296.20
2023-04-15T01:09:11.441Z,332.80
2023-04-15T01:10:11.461Z,279.60
2023-04-15T01:11:11.496Z,313.10
2023-04-15T01:12:11.289Z,320.90
2023-04-15T01:13:11.439Z,303.90
2023-04-15T01:14:11.412Z,355.30
2023-04-15T01:15:11.302Z,308.60
2023-04-15T01:16:11.382Z,309.30
2023-04-15T01:17:11.274Z,275.50
2023-04-15T01:18:11.504Z,236.00
2023-04-15T01:19:11.362Z,257.90
2023-04-15T01:20:11.479Z,236.50
2023-04-15T01:21:11.313Z,194.60
2023-04-15T01:22:11.472Z,221.10
2023-04-15T01:23:11.358Z,200.20
2023-04-15T01:24:11.338Z,245.60
2023-04-15T01:25:11.328Z,266.60
2023-04-15T01:26:11.316Z,323.00
2023-04-15T01:27:11.287Z,306.40
2023-04-15T01:28:11.237Z,304.30
2023-04-15T01:29:11.286Z,339.40
2023-04-15T01:30:11.272Z,301.30
2023-04-15T01:31:11.367Z,307.90
2023-04-15T01:32:11.254Z,297.40
2023-04-15T01:33:11.330Z,316.10
2023-04-15T01:34:11.267Z,296.70
2023-04-15T01:35:13.130Z,286.20
2023-04-15T01:36:11.259Z,311.20
2023-04-15T01:37:11.228Z,290.90
2023-04-15T01:38:11.234Z,313.40
2023-04-15T01:39:11.241Z,432.30
2023-04-15T01:40:11.644Z,349.50
2023-04-15T01:41:11.307Z,285.90
2023-04-15T01:42:11.331Z,302.10
2023-04-15T01:43:11.344Z,352.20
2023-04-15T01:44:11.170Z,300.30
2023-04-15T01:45:11.092Z,305.00
2023-04-15T01:46:11.341Z,284.30
2023-04-15T01:47:11.102Z,297.20
2023-04-15T01:48:11.118Z,270.80
2023-04-15T01:49:11.074Z,296.90
2023-04-15T01:50:11.059Z,276.90
2023-04-15T01:51:11.138Z,302.10
2023-04-15T01:52:11.080Z,289.60
2023-04-15T01:53:11.082Z,271.20
2023-04-15T01:54:12.140Z,288.10
2023-04-15T01:55:11.112Z,243.50
2023-04-15T01:56:11.168Z,243.40
2023-04-15T01:57:11.201Z,222.30
2023-04-15T01:58:11.117Z,239.20
2023-04-15T01:59:11.130Z,223.70
2023-04-15T02:00:11.082Z,222.80
2023-04-15T02:01:11.166Z,270.60
2023-04-15T02:02:11.258Z,237.20
2023-04-15T02:03:11.118Z,242.60
2023-04-15T02:04:11.206Z,243.50
2023-04-15T02:05:11.103Z,258.00
2023-04-15T02:06:10.937Z,249.00
2023-04-15T02:07:11.086Z,253.70
2023-04-15T02:08:11.021Z,247.80
2023-04-15T02:09:10.999Z,233.00
2023-04-15T02:10:12.070Z,214.90
2023-04-15T02:11:11.169Z,204.10
2023-04-15T02:12:11.006Z,208.10
2023-04-15T02:13:11.026Z,194.00
2023-04-15T02:14:10.987Z,180.40
2023-04-15T02:15:10.998Z,226.50
2023-04-15T02:16:11.005Z,209.00
2023-04-15T02:17:10.983Z,199.10
2023-04-15T02:18:10.950Z,202.80
2023-04-15T02:19:11.042Z,191.60
2023-04-15T02:20:10.957Z,198.60
2023-04-15T02:21:10.898Z,189.30
2023-04-15T02:22:10.821Z,218.80
2023-04-15T02:23:10.845Z,202.10
2023-04-15T02:24:11.010Z,193.90
2023-04-15T02:25:10.970Z,179.60
2023-04-15T02:26:10.881Z,179.40
2023-04-15T02:27:10.985Z,169.30
2023-04-15T02:28:28.714Z,172.60
2023-04-15T02:29:11.926Z,141.00
2023-04-15T02:30:10.861Z,143.60
2023-04-15T02:31:10.946Z,141.30
2023-04-15T02:32:11.008Z,154.70
2023-04-15T02:33:10.978Z,137.80
2023-04-15T02:34:10.861Z,147.70
2023-04-15T02:35:10.906Z,142.80
2023-04-15T02:36:10.817Z,162.10
2023-04-15T02:37:10.818Z,173.30
2023-04-15T02:38:10.832Z,190.20
2023-04-15T02:39:10.763Z,199.70
2023-04-15T02:40:10.801Z,179.60
2023-04-15T02:41:10.759Z,174.10
2023-04-15T02:42:10.711Z,191.40
2023-04-15T02:43:10.721Z,141.60
2023-04-15T02:44:11.499Z,141.40
2023-04-15T02:45:10.717Z,150.50
2023-04-15T02:46:11.049Z,139.20
2023-04-15T02:47:10.688Z,148.60
2023-04-15T02:48:10.707Z,149.80
2023-04-15T02:49:10.775Z,146.60
2023-04-15T02:50:10.806Z,169.60
2023-04-15T02:51:10.791Z,180.00
2023-04-15T02:52:10.887Z,189.60
2023-04-15T02:53:10.704Z,167.20
2023-04-15T02:54:11.750Z,173.90
2023-04-15T02:55:10.775Z,202.60
2023-04-15T02:56:10.866Z,153.10
2023-04-15T02:57:10.691Z,183.40
2023-04-15T02:58:10.709Z,175.70
2023-04-15T02:59:10.632Z,170.70
2023-04-15T03:00:10.583Z,175.90
2023-04-15T03:01:10.597Z,159.30
2023-04-15T03:02:10.731Z,197.70
2023-04-15T03:03:10.852Z,171.90
2023-04-15T03:04:10.648Z,197.80
2023-04-15T03:05:10.545Z,208.50
2023-04-15T03:06:10.607Z,204.80
2023-04-15T03:07:10.637Z,219.00
2023-04-15T03:08:10.576Z,200.00
2023-04-15T03:09:10.611Z,260.30
2023-04-15T03:10:10.591Z,236.00
2023-04-15T03:11:10.694Z,213.20
2023-04-15T03:12:10.687Z,224.90
2023-04-15T03:13:11.669Z,234.30
2023-04-15T03:14:10.587Z,179.90
2023-04-15T03:15:10.653Z,169.70
2023-04-15T03:16:10.652Z,150.90
2023-04-15T03:17:10.640Z,167.30
2023-04-15T03:18:10.576Z,183.60
2023-04-15T03:19:10.731Z,236.40
2023-04-15T03:20:10.637Z,258.70
2023-04-15T03:21:10.560Z,225.50
2023-04-15T03:22:10.525Z,295.10
2023-04-15T03:23:10.475Z,186.60
2023-04-15T03:24:10.475Z,189.20
2023-04-15T03:25:10.460Z,157.50
2023-04-15T03:26:10.498Z,156.40
2023-04-15T03:27:10.378Z,168.30
2023-04-15T03:28:10.473Z,140.10
2023-04-15T03:29:10.519Z,139.60
2023-04-15T03:30:10.435Z,141.70
2023-04-15T03:31:10.481Z,145.10
2023-04-15T03:32:10.446Z,144.80
2023-04-15T03:33:10.468Z,147.40
2023-04-15T03:34:10.422Z,144.10
2023-04-15T03:35:10.471Z,144.90
2023-04-15T03:36:10.448Z,146.20
2023-04-15T03:37:10.426Z,135.00
2023-04-15T03:38:10.508Z,131.70
2023-04-15T03:39:11.362Z,126.50
2023-04-15T03:40:10.523Z,124.90
2023-04-15T03:41:10.325Z,124.80
2023-04-15T03:42:10.405Z,126.10
2023-04-15T03:43:10.304Z,131.50
2023-04-15T03:44:10.317Z,126.80
2023-04-15T03:45:10.298Z,144.50
2023-04-15T03:46:10.851Z,142.60
2023-04-15T03:47:10.299Z,125.70
2023-04-15T03:48:16.487Z,128.80
2023-04-15T03:49:12.262Z,123.10
2023-04-15T03:50:10.259Z,110.40
2023-04-15T03:51:10.376Z,110.80
2023-04-15T03:52:10.366Z,125.30
2023-04-15T03:53:10.275Z,123.70
2023-04-15T03:54:10.260Z,143.10
2023-04-15T03:55:10.324Z,151.00
2023-04-15T03:56:10.264Z,143.20
2023-04-15T03:57:10.356Z,152.80
2023-04-15T03:58:10.244Z,166.10
2023-04-15T03:59:10.326Z,146.20
2023-04-15T04:00:10.258Z,141.30
2023-04-15T04:01:10.290Z,145.60
2023-04-15T04:02:10.334Z,143.20
2023-04-15T04:03:10.529Z,135.50
2023-04-15T04:04:10.185Z,140.40
2023-04-15T04:05:10.145Z,179.40
2023-04-15T04:06:10.160Z,174.20
2023-04-15T04:07:10.321Z,168.50
2023-04-15T04:08:10.227Z,179.30
2023-04-15T04:09:10.246Z,157.70
2023-04-15T04:10:10.219Z,122.00
2023-04-15T04:11:10.166Z,119.40
2023-04-15T04:12:10.156Z,117.60
2023-04-15T04:13:10.235Z,127.70
2023-04-15T04:14:10.175Z,120.30
2023-04-15T04:15:10.216Z,117.10
2023-04-15T04:16:10.287Z,129.80
2023-04-15T04:17:10.176Z,120.70
2023-04-15T04:18:10.514Z,128.50
2023-04-15T04:19:11.140Z,117.60
2023-04-15T04:20:10.162Z,122.90
2023-04-15T04:21:10.154Z,127.90
2023-04-15T04:22:10.114Z,127.30
2023-04-15T04:23:10.007Z,124.20
2023-04-15T04:24:10.075Z,132.10
2023-04-15T04:25:10.023Z,196.70
2023-04-15T04:26:10.142Z,157.30
2023-04-15T04:27:10.086Z,165.90
2023-04-15T04:28:10.169Z,156.30
2023-04-15T04:29:10.177Z,188.80
2023-04-15T04:30:10.116Z,212.80
2023-04-15T04:31:11.091Z,174.00
2023-04-15T04:32:10.228Z,160.10
2023-04-15T04:33:10.111Z,153.80
2023-04-15T04:34:10.048Z,139.80
2023-04-15T04:35:10.128Z,146.20
2023-04-15T04:36:09.957Z,155.10
2023-04-15T04:37:10.040Z,133.10
2023-04-15T04:38:10.058Z,129.90
2023-04-15T04:39:10.080Z,141.50
2023-04-15T04:40:10.080Z,138.40
2023-04-15T04:41:09.972Z,160.40
2023-04-15T04:42:10.059Z,139.30
2023-04-15T04:43:10.050Z,141.50
2023-04-15T04:44:09.962Z,140.60
2023-04-15T04:45:09.909Z,137.90
2023-04-15T04:46:09.917Z,133.20
2023-04-15T04:47:09.882Z,135.80
2023-04-15T04:48:09.866Z,140.00
2023-04-15T04:49:09.862Z,141.20
2023-04-15T04:50:09.881Z,140.00
2023-04-15T04:51:10.461Z,129.80
2023-04-15T04:52:09.930Z,157.50
2023-04-15T04:53:09.852Z,130.50
2023-04-15T04:54:09.924Z,130.40
2023-04-15T04:55:09.841Z,158.60
2023-04-15T04:56:09.868Z,140.70
2023-04-15T04:57:09.895Z,123.50
2023-04-15T04:58:09.869Z,120.20
2023-04-15T04:59:09.852Z,134.90
2023-04-15T05:00:09.879Z,124.40
2023-04-15T05:01:09.888Z,158.70
2023-04-15T05:02:09.927Z,142.50
2023-04-15T05:03:09.951Z,176.00
2023-04-15T05:04:10.002Z,164.40
2023-04-15T05:05:09.793Z,127.40
2023-04-15T05:06:09.699Z,152.60
2023-04-15T05:07:09.776Z,130.00
2023-04-15T05:08:10.287Z,130.30
2023-04-15T05:09:09.729Z,124.70
2023-04-15T05:10:09.666Z,120.90
2023-04-15T05:11:09.785Z,116.50
2023-04-15T05:12:09.857Z,112.90
2023-04-15T05:13:09.805Z,98.60
2023-04-15T05:14:09.841Z,103.10
2023-04-15T05:15:09.717Z,111.40
2023-04-15T05:16:09.762Z,107.30
2023-04-15T05:17:09.751Z,107.10
2023-04-15T05:18:09.761Z,108.50
2023-04-15T05:19:09.738Z,114.80
2023-04-15T05:20:09.612Z,112.90
2023-04-15T05:21:09.641Z,125.00
2023-04-15T05:22:09.677Z,127.40
2023-04-15T05:23:09.638Z,121.90
2023-04-15T05:24:09.757Z,137.90
2023-04-15T05:25:09.643Z,200.10
2023-04-15T05:26:09.647Z,235.00
2023-04-15T05:27:09.642Z,181.00
2023-04-15T05:28:09.625Z,160.80
2023-04-15T05:29:09.639Z,160.90
2023-04-15T05:30:11.081Z,176.10
2023-04-15T05:31:09.679Z,181.40
2023-04-15T05:32:09.666Z,196.70
2023-04-15T05:33:09.734Z,255.00
2023-04-15T05:34:39.503Z,246.80
2023-04-15T05:35:10.561Z,291.60
2023-04-15T05:36:09.651Z,231.90
2023-04-15T05:37:09.695Z,251.70
2023-04-15T05:38:09.589Z,250.80
2023-04-15T05:39:09.586Z,272.60
2023-04-15T05:40:09.510Z,224.70
2023-04-15T05:41:09.500Z,234.90
2023-04-15T05:42:09.461Z,276.60
2023-04-15T05:43:09.407Z,269.80
2023-04-15T05:44:09.447Z,254.00
2023-04-15T05:45:09.448Z,249.10
2023-04-15T05:46:09.538Z,237.20
2023-04-15T05:47:09.408Z,224.00
2023-04-15T05:48:09.497Z,244.40
2023-04-15T05:49:09.492Z,252.40
2023-04-15T05:50:09.555Z,257.20
2023-04-15T05:51:09.531Z,312.50
2023-04-15T05:52:09.579Z,324.10
2023-04-15T05:53:09.549Z,339.10
2023-04-15T05:54:09.541Z,356.70
2023-04-15T05:55:09.502Z,352.90
2023-04-15T05:56:09.809Z,406.20
2023-04-15T05:57:09.480Z,380.00
2023-04-15T05:58:09.539Z,349.90
2023-04-15T05:59:09.440Z,358.10
2023-04-15T06:00:09.540Z,328.20
2023-04-15T06:01:09.334Z,320.60
2023-04-15T06:02:09.443Z,337.90
2023-04-15T06:03:09.406Z,355.70
2023-04-15T06:04:09.442Z,374.00
2023-04-15T06:05:09.616Z,353.50
2023-04-15T06:06:09.384Z,315.80
2023-04-15T06:07:09.451Z,297.60
2023-04-15T06:08:09.346Z,302.60
2023-04-15T06:09:09.343Z,464.00
2023-04-15T06:10:09.384Z,431.20
2023-04-15T06:11:09.377Z,469.60
2023-04-15T06:12:09.394Z,503.80
2023-04-15T06:13:10.323Z,434.60
2023-04-15T06:14:09.330Z,432.70
2023-04-15T06:15:09.305Z,451.80
2023-04-15T06:16:09.341Z,380.30
2023-04-15T06:17:09.388Z,349.70
2023-04-15T06:18:09.352Z,278.70
2023-04-15T06:19:09.719Z,161.00
2023-04-15T06:20:09.284Z,112.70
2023-04-15T06:21:09.380Z,123.90
2023-04-15T06:22:09.304Z,103.90
2023-04-15T06:23:09.573Z,100.60
2023-04-15T06:24:09.280Z,111.20
2023-04-15T06:25:09.204Z,110.20
2023-04-15T06:26:09.404Z,113.60
2023-04-15T06:27:09.173Z,110.50
2023-04-15T06:28:09.278Z,108.80
2023-04-15T06:29:09.311Z,123.80
2023-04-15T06:30:09.206Z,115.10
2023-04-15T06:31:09.289Z,120.90
2023-04-15T06:32:09.215Z,120.10
2023-04-15T06:33:09.194Z,122.80
2023-04-15T06:34:09.253Z,125.90
2023-04-15T06:35:09.272Z,130.80
2023-04-15T06:36:09.205Z,121.40
2023-04-15T06:37:09.123Z,114.10
2023-04-15T06:38:09.229Z,117.90
2023-04-15T06:39:09.261Z,125.70
2023-04-15T06:40:09.305Z,120.00
2023-04-15T06:41:09.132Z,119.90
2023-04-15T06:42:09.168Z,116.00
2023-04-15T06:43:09.114Z,116.80
2023-04-15T06:44:09.205Z,118.20
2023-04-15T06:45:09.124Z,121.40
2023-04-15T06:46:09.232Z,121.00
2023-04-15T06:47:09.091Z,130.10
2023-04-15T06:48:09.225Z,117.40
2023-04-15T06:49:09.110Z,115.80
2023-04-15T06:50:08.953Z,125.60
2023-04-15T06:58:56.068Z,157.70
2023-04-15T06:59:55.879Z,124.20
2023-04-15T07:02:55.488Z,124.80
2023-04-15T07:03:56.775Z,132.10
2023-04-15T07:04:56.656Z,137.70
2023-04-15T07:05:56.729Z,145.40
2023-04-15T07:06:56.654Z,138.00
2023-04-15T07:14:05.160Z,156.30
2023-04-15T07:15:06.693Z,141.70
2023-04-15T07:16:06.388Z,174.40
2023-04-15T07:17:06.357Z,144.10
2023-04-15T07:18:38.330Z,134.80
2023-04-15T07:19:06.333Z,255.50
2023-04-15T07:20:06.278Z,120.90
2023-04-15T07:21:06.257Z,122.90
2023-04-15T07:22:06.317Z,167.40
2023-04-15T07:23:06.239Z,139.80
2023-04-15T07:24:06.274Z,133.30
2023-04-15T07:25:06.290Z,127.10
2023-04-15T07:26:06.287Z,198.00
2023-04-15T07:27:06.307Z,188.30
2023-04-15T07:28:06.382Z,205.50
2023-04-15T07:29:06.319Z,194.80
2023-04-15T07:30:06.350Z,174.50
2023-04-15T07:31:06.269Z,136.10
2023-04-15T07:32:06.312Z,220.30
2023-04-15T07:33:06.243Z,138.00
2023-04-15T07:34:06.317Z,117.30
2023-04-15T07:35:06.264Z,117.60
2023-04-15T07:36:06.397Z,167.20
2023-04-15T07:37:06.224Z,296.30
2023-04-15T07:38:06.192Z,211.20
2023-04-15T07:39:06.231Z,240.50
2023-04-15T07:40:06.204Z,157.40
2023-04-15T07:41:06.314Z,134.60
2023-04-15T07:42:06.346Z,172.20
2023-04-15T07:43:06.333Z,146.80
2023-04-15T07:44:06.099Z,113.60
2023-04-15T07:45:06.132Z,123.70
2023-04-15T07:46:06.104Z,148.40
2023-04-15T07:47:06.128Z,247.90
2023-04-15T07:48:06.020Z,237.20
2023-04-15T07:49:06.095Z,190.50
2023-04-15T07:50:06.067Z,174.70
2023-04-15T07:51:06.110Z,157.10
2023-04-15T07:52:06.192Z,158.90
2023-04-15T07:53:06.147Z,143.60
2023-04-15T07:54:06.147Z,129.50
2023-04-15T07:55:25.386Z,123.40
2023-04-15T07:56:05.980Z,127.80
2023-04-15T07:57:06.186Z,156.20
2023-04-15T07:58:06.177Z,148.40
2023-04-15T07:59:06.250Z,116.50
2023-04-15T08:00:06.140Z,101.90
2023-04-15T08:01:06.188Z,96.20
2023-04-15T08:02:06.180Z,91.70
2023-04-15T08:03:06.489Z,112.90
2023-04-15T08:04:06.245Z,94.90
2023-04-15T08:05:06.104Z,91.70
2023-04-15T08:06:06.093Z,81.50
2023-04-15T08:07:06.195Z,82.20
2023-04-15T08:08:05.925Z,90.40
2023-04-15T08:09:06.026Z,105.70
2023-04-15T08:10:05.948Z,86.10
2023-04-15T08:11:05.896Z,96.50
2023-04-15T08:12:05.915Z,88.00
2023-04-15T08:13:06.008Z,104.80
2023-04-15T08:14:05.989Z,112.30
2023-04-15T08:15:06.005Z,129.50
2023-04-15T08:16:06.106Z,115.90
2023-04-15T08:17:05.998Z,112.30
2023-04-15T08:18:06.191Z,131.20
2023-04-15T08:19:05.947Z,140.80
2023-04-15T08:20:06.042Z,109.30
2023-04-15T08:21:05.988Z,134.10
2023-04-15T08:22:06.116Z,111.40
2023-04-15T08:23:05.980Z,137.10
2023-04-15T08:24:06.145Z,95.00
2023-04-15T08:25:06.214Z,122.20
2023-04-15T08:26:07.002Z,118.90
2023-04-15T08:27:05.931Z,121.50
2023-04-15T08:28:05.899Z,114.90
2023-04-15T08:29:06.149Z,106.00
2023-04-15T08:30:05.884Z,147.80
2023-04-15T08:31:06.069Z,194.90
2023-04-15T08:32:05.746Z,113.80
2023-04-15T08:33:05.814Z,100.80
2023-04-15T08:34:05.786Z,92.90
2023-04-15T08:35:05.808Z,126.00
2023-04-15T08:36:05.878Z,128.80
2023-04-15T08:37:06.099Z,119.70
2023-04-15T08:38:05.772Z,110.30
2023-04-15T08:39:05.816Z,232.30
2023-04-15T08:40:05.804Z,129.70
2023-04-15T08:41:05.830Z,115.90
2023-04-15T08:42:05.905Z,158.00
2023-04-15T08:43:05.817Z,140.50
2023-04-15T08:44:05.745Z,144.80
2023-04-15T08:45:05.868Z,102.30
2023-04-15T08:46:05.738Z,115.30
2023-04-15T08:47:06.940Z,107.20
2023-04-15T08:48:05.782Z,117.20
2023-04-15T08:49:05.650Z,106.00
2023-04-15T08:50:05.805Z,170.40
2023-04-15T08:51:05.761Z,150.80
2023-04-15T08:52:05.674Z,176.50
2023-04-15T08:53:05.795Z,205.80
2023-04-15T08:54:05.825Z,159.20
2023-04-15T08:55:05.835Z,120.00
2023-04-15T08:56:05.913Z,110.00
2023-04-15T08:57:06.158Z,103.50
2023-04-15T08:58:06.467Z,116.90
2023-04-15T09:01:03.931Z,169.70
2023-04-15T09:02:42.587Z,163.70
2023-04-15T09:03:05.062Z,142.90
2023-04-15T09:04:05.727Z,116.30
2023-04-15T09:05:05.618Z,134.60
2023-04-15T09:08:13.287Z,252.20
2023-04-15T09:09:15.520Z,140.90
2023-04-15T09:12:12.141Z,130.70
2023-04-15T09:13:13.319Z,93.60
2023-04-15T09:14:14.242Z,72.20
2023-04-15T09:15:12.910Z,73.80
2023-04-15T09:16:13.164Z,82.90
2023-04-15T09:17:13.250Z,87.60
2023-04-15T09:18:13.048Z,100.50
2023-04-15T09:19:13.841Z,91.30
2023-04-15T09:20:12.855Z,87.20
2023-04-15T09:21:13.277Z,79.70
2023-04-15T09:22:12.873Z,70.60
2023-04-15T09:23:12.886Z,80.40
2023-04-15T09:24:12.865Z,68.90
2023-04-15T09:25:12.876Z,71.30
2023-04-15T09:26:12.879Z,80.10
2023-04-15T09:27:12.913Z,69.30
2023-04-15T09:28:12.847Z,61.00
2023-04-15T09:29:12.878Z,65.60
2023-04-15T09:30:12.758Z,67.60
2023-04-15T09:31:21.482Z,73.70
2023-04-15T09:32:13.067Z,75.10
2023-04-15T09:33:13.037Z,72.80
2023-04-15T09:34:13.066Z,87.00
2023-04-15T09:35:12.816Z,84.00
2023-04-15T09:36:12.992Z,138.30
2023-04-15T09:38:12.678Z,118.90
2023-04-15T09:39:12.733Z,98.30
2023-04-15T09:40:12.694Z,76.90
2023-04-15T09:41:12.650Z,77.80
2023-04-15T09:42:12.743Z,80.40
2023-04-15T09:43:12.647Z,89.00
2023-04-15T09:44:12.743Z,115.00
2023-04-15T09:45:14.004Z,121.90
2023-04-15T09:46:12.621Z,84.50
2023-04-15T09:47:12.624Z,112.50
2023-04-15T09:48:12.713Z,109.10
2023-04-15T09:49:12.588Z,116.80
2023-04-15T09:50:12.733Z,79.50
2023-04-15T09:51:12.986Z,65.50
2023-04-15T09:52:12.841Z,54.80
2023-04-15T09:53:12.632Z,56.40
2023-04-15T09:54:12.779Z,65.30
2023-04-15T09:55:12.574Z,87.70
2023-04-15T09:56:12.741Z,84.80
2023-04-15T09:57:12.674Z,82.90
2023-04-15T09:58:14.326Z,88.90
2023-04-15T09:59:13.304Z,80.00
2023-04-15T10:00:13.346Z,106.90
2023-04-15T10:01:12.682Z,93.70
2023-04-15T10:02:12.840Z,91.00
2023-04-15T10:03:13.022Z,101.00
2023-04-15T10:04:12.787Z,98.00
2023-04-15T10:05:12.810Z,103.40
2023-04-15T10:06:12.580Z,88.40
2023-04-15T10:07:12.863Z,79.40
2023-04-15T10:08:12.652Z,72.00
2023-04-15T10:09:12.938Z,52.90
2023-04-15T10:10:12.572Z,56.00
2023-04-15T10:11:12.647Z,64.40
2023-04-15T10:12:12.973Z,69.40
2023-04-15T10:13:12.598Z,82.40
2023-04-15T10:14:14.530Z,68.60
2023-04-15T10:15:12.498Z,74.50
2023-04-15T10:16:12.636Z,60.30
2023-04-15T10:17:12.684Z,56.60
2023-04-15T10:18:13.058Z,54.70
2023-04-15T10:19:13.019Z,56.90
2023-04-15T10:20:13.657Z,88.10
2023-04-15T10:21:12.907Z,62.00
2023-04-15T10:22:12.595Z,54.00
2023-04-15T10:23:13.493Z,60.20
2023-04-15T10:24:13.492Z,57.40
2023-04-15T10:25:12.709Z,56.80
2023-04-15T10:26:12.759Z,53.90
2023-04-15T10:27:12.622Z,54.60
2023-04-15T10:28:12.613Z,56.40
2023-04-15T10:29:12.499Z,56.10
2023-04-15T10:30:13.075Z,52.90
2023-04-15T10:31:12.970Z,55.00
2023-04-15T10:32:12.707Z,52.50
2023-04-15T10:33:12.696Z,62.30
2023-04-15T10:34:12.531Z,59.70
2023-04-15T10:35:12.439Z,69.80
2023-04-15T10:36:12.617Z,64.00
2023-04-15T10:37:12.403Z,58.00
2023-04-15T10:38:12.807Z,63.60
2023-04-15T10:39:12.981Z,54.80
2023-04-15T10:40:12.660Z,58.00
2023-04-15T10:41:12.697Z,57.10
2023-04-15T10:42:13.017Z,58.00
2023-04-15T10:43:12.809Z,62.30
2023-04-15T10:44:12.653Z,63.60
2023-04-15T10:45:12.582Z,66.10
2023-04-15T10:46:13.203Z,70.60
2023-04-15T10:47:12.839Z,64.00
2023-04-15T10:48:12.638Z,62.50
2023-04-15T10:49:12.930Z,70.20
2023-04-15T10:50:12.634Z,57.10
2023-04-15T10:51:12.682Z,58.70
2023-04-15T10:52:12.211Z,61.40
2023-04-15T10:53:12.586Z,63.10
2023-04-15T10:54:12.954Z,59.00
2023-04-15T10:55:12.761Z,61.20
2023-04-15T10:56:12.843Z,60.00
2023-04-15T10:57:12.926Z,67.40
2023-04-15T10:58:12.696Z,77.70
2023-04-15T10:59:12.785Z,94.40
2023-04-15T11:00:12.977Z,72.70
2023-04-15T11:01:12.602Z,74.00
2023-04-15T11:02:12.287Z,63.50
2023-04-15T11:03:12.452Z,73.40
2023-04-15T11:04:12.650Z,72.80
2023-04-15T11:05:12.536Z,76.50
2023-04-15T11:06:12.663Z,68.20
2023-04-15T11:07:12.802Z,73.10
2023-04-15T11:08:13.939Z,61.60
2023-04-15T11:09:12.755Z,59.70
2023-04-15T11:10:12.749Z,56.70
2023-04-15T11:11:12.359Z,64.30
2023-04-15T11:12:12.179Z,60.00
2023-04-15T11:13:13.168Z,65.40
2023-04-15T11:14:12.691Z,65.20
2023-04-15T11:15:12.836Z,61.50
2023-04-15T11:16:12.789Z,69.80
2023-04-15T11:17:12.656Z,54.00
2023-04-15T11:18:12.674Z,61.70
2023-04-15T11:19:13.842Z,74.70
2023-04-15T11:20:12.672Z,80.50
2023-04-15T11:21:12.471Z,97.00
2023-04-15T11:22:12.603Z,86.70
2023-04-15T11:23:15.151Z,73.60
2023-04-15T11:24:12.774Z,66.60
2023-04-15T11:25:12.575Z,69.00
2023-04-15T11:26:13.681Z,92.00
2023-04-15T11:27:12.677Z,68.40
2023-04-15T11:28:12.498Z,105.70
2023-04-15T11:29:12.674Z,89.00
2023-04-15T11:30:13.108Z,70.70
2023-04-15T11:31:12.187Z,55.90
2023-04-15T11:32:12.839Z,60.60
2023-04-15T11:33:12.345Z,65.50
2023-04-15T11:34:12.080Z,66.70
2023-04-15T11:35:12.737Z,72.50
2023-04-15T11:36:13.808Z,75.20
2023-04-15T11:37:12.563Z,62.40
2023-04-15T11:38:12.533Z,69.50
2023-04-15T11:39:12.581Z,57.00
2023-04-15T11:40:12.519Z,55.80
2023-04-15T11:41:12.269Z,53.50
2023-04-15T11:42:12.350Z,51.80
2023-04-15T11:43:12.547Z,52.40
2023-04-15T11:44:12.539Z,47.40
2023-04-15T11:45:12.391Z,50.80
2023-04-15T11:46:12.740Z,53.40
2023-04-15T11:47:12.541Z,50.90
2023-04-15T11:48:12.698Z,60.30
2023-04-15T11:49:12.338Z,51.80
2023-04-15T11:50:12.314Z,45.90
2023-04-15T11:51:12.653Z,57.80
2023-04-15T11:52:12.772Z,51.50
2023-04-15T11:53:12.391Z,57.30
2023-04-15T11:54:12.228Z,57.60
2023-04-15T11:55:12.221Z,52.20
2023-04-15T11:56:12.064Z,53.80
2023-04-15T11:57:12.536Z,49.20
2023-04-15T11:58:12.857Z,50.60
2023-04-15T11:59:12.142Z,50.60
2023-04-15T12:00:12.081Z,46.80
2023-04-15T12:01:12.460Z,55.90
2023-04-15T12:02:12.419Z,50.50
2023-04-15T12:03:12.740Z,51.00
2023-04-15T12:04:12.368Z,48.70
2023-04-15T12:05:12.430Z,49.50
2023-04-15T12:06:12.423Z,56.10
2023-04-15T12:07:12.258Z,51.50
2023-04-15T12:08:12.413Z,55.30
2023-04-15T12:09:12.315Z,55.90
2023-04-15T12:10:12.287Z,53.60
2023-04-15T12:11:12.270Z,57.70
2023-04-15T12:12:12.403Z,58.40
2023-04-15T12:13:12.269Z,56.10
2023-04-15T12:14:12.812Z,50.40
2023-04-15T12:15:12.320Z,57.10
2023-04-15T12:16:12.039Z,45.40
2023-04-15T12:17:11.835Z,50.20
2023-04-15T12:18:12.118Z,57.40
2023-04-15T12:19:12.105Z,51.80
2023-04-15T12:20:12.019Z,51.40
2023-04-15T12:21:11.818Z,56.70
2023-04-15T12:22:12.335Z,87.10
2023-04-15T12:23:11.719Z,57.30
2023-04-15T12:24:11.673Z,68.10
2023-04-15T12:25:11.864Z,59.50
2023-04-15T12:26:11.988Z,67.20
2023-04-15T12:27:12.055Z,67.00
2023-04-15T12:28:12.113Z,61.20
2023-04-15T12:29:11.923Z,53.60
2023-04-15T12:30:11.865Z,48.20
2023-04-15T12:31:11.705Z,50.50
2023-04-15T12:32:11.692Z,44.80
2023-04-15T12:33:11.607Z,47.40
2023-04-15T12:34:17.680Z,43.40
2023-04-15T12:35:12.766Z,51.10
2023-04-15T12:36:11.754Z,55.30
2023-04-15T12:37:12.040Z,73.40
2023-04-15T12:38:11.527Z,67.30
2023-04-15T12:39:11.704Z,53.70
2023-04-15T12:40:11.663Z,47.00
2023-04-15T12:41:11.703Z,54.10
2023-04-15T12:42:11.383Z,55.30
2023-04-15T12:43:11.438Z,55.10
2023-04-15T12:44:12.524Z,48.00
2023-04-15T12:45:11.603Z,57.40
2023-04-15T12:46:11.621Z,69.80
2023-04-15T12:47:11.902Z,70.40
2023-04-15T12:48:11.828Z,54.60
2023-04-15T12:49:11.865Z,82.30
2023-04-15T12:50:11.799Z,97.50
2023-04-15T12:51:11.529Z,71.60
2023-04-15T12:52:11.576Z,60.50
2023-04-15T12:53:11.517Z,56.20
2023-04-15T12:54:11.504Z,56.50
2023-04-15T12:55:11.709Z,53.80
2023-04-15T12:56:11.844Z,52.40
2023-04-15T12:57:11.802Z,59.50
2023-04-15T12:58:11.866Z,57.20
2023-04-15T12:59:11.544Z,72.20
2023-04-15T13:00:11.979Z,65.60